DAL937 KATL-KTUS
Flight info
| Callsign | DAL937 |
|---|---|
| Flight time | N/A |
| Altitude | 32000 |
| Route | KAJIN2 STNGA KM18K SUTTN CISAR SLR MUTEE KF18A DOZED EWM ZONNA2 |
| Aircraft | B739/M-SDE2E3FGHIRWXY/LB1 |
Departure
| Time | N/A |
|---|---|
| Airport | Hartsfield Jackson Atlanta International Airport (KATL) |
Arrival
| Time | 2026-05-05 17:22 |
|---|---|
| Airport | Tucson International Airport (KTUS) |
| Time | Latitude | Longitude | Altitude | Speed | Heading |
|---|---|---|---|---|---|
| 2026-05-05 15:28 | 33.18882 | -97.37946 | 31758 ft | 380 kts | 269° |
| 2026-05-05 15:28 | 33.18800 | -97.44262 | 31752 ft | 380 kts | 269° |
| 2026-05-05 15:29 | 33.18714 | -97.50575 | 31765 ft | 380 kts | 269° |
| 2026-05-05 15:29 | 33.18624 | -97.56896 | 31773 ft | 381 kts | 269° |
| 2026-05-05 15:30 | 33.18532 | -97.63243 | 31750 ft | 383 kts | 269° |
| 2026-05-05 15:30 | 33.18435 | -97.69608 | 31758 ft | 383 kts | 269° |
| 2026-05-05 15:31 | 33.18335 | -97.75965 | 31773 ft | 383 kts | 269° |
| 2026-05-05 15:31 | 33.18233 | -97.82319 | 31772 ft | 383 kts | 269° |
| 2026-05-05 15:32 | 33.18127 | -97.88682 | 31768 ft | 383 kts | 269° |
| 2026-05-05 15:32 | 33.18018 | -97.94999 | 31763 ft | 383 kts | 269° |
| 2026-05-05 15:33 | 33.17906 | -98.01370 | 31749 ft | 383 kts | 269° |
| 2026-05-05 15:33 | 33.17790 | -98.07730 | 31743 ft | 384 kts | 268° |
| 2026-05-05 15:34 | 33.17672 | -98.14103 | 31728 ft | 384 kts | 268° |
| 2026-05-05 15:34 | 33.17549 | -98.20473 | 31713 ft | 384 kts | 268° |
| 2026-05-05 15:35 | 33.17190 | -98.26831 | 31692 ft | 384 kts | 264° |
| 2026-05-05 15:35 | 33.16590 | -98.33169 | 31704 ft | 384 kts | 264° |
| 2026-05-05 15:36 | 33.15984 | -98.39509 | 31698 ft | 384 kts | 264° |
| 2026-05-05 15:36 | 33.15385 | -98.45846 | 31745 ft | 384 kts | 264° |
| 2026-05-05 15:37 | 33.14792 | -98.52144 | 31751 ft | 384 kts | 264° |
| 2026-05-05 15:37 | 33.14195 | -98.58476 | 31755 ft | 384 kts | 264° |
| 2026-05-05 15:38 | 33.13594 | -98.64818 | 31747 ft | 384 kts | 264° |
| 2026-05-05 15:38 | 33.12991 | -98.71151 | 31745 ft | 384 kts | 264° |
| 2026-05-05 15:39 | 33.12384 | -98.77483 | 31725 ft | 384 kts | 263° |
| 2026-05-05 15:39 | 33.11774 | -98.83816 | 31720 ft | 384 kts | 263° |
| 2026-05-05 15:40 | 33.11161 | -98.90144 | 31709 ft | 384 kts | 263° |
| 2026-05-05 15:40 | 33.10545 | -98.96477 | 31697 ft | 384 kts | 263° |
| 2026-05-05 15:41 | 33.09929 | -99.02761 | 31682 ft | 384 kts | 263° |
| 2026-05-05 15:41 | 33.09307 | -99.09082 | 31690 ft | 384 kts | 263° |
| 2026-05-05 15:42 | 33.08682 | -99.15402 | 31694 ft | 384 kts | 263° |
| 2026-05-05 15:42 | 33.08156 | -99.20693 | 31683 ft | 384 kts | 263° |
| 2026-05-05 15:43 | 33.07529 | -99.26978 | 31685 ft | 384 kts | 263° |
| 2026-05-05 15:43 | 33.06894 | -99.33297 | 31676 ft | 384 kts | 263° |
| 2026-05-05 15:44 | 33.06256 | -99.39627 | 31671 ft | 384 kts | 263° |
| 2026-05-05 15:44 | 33.05616 | -99.45938 | 31675 ft | 384 kts | 263° |
| 2026-05-05 15:45 | 33.04971 | -99.52256 | 31682 ft | 384 kts | 262° |
| 2026-05-05 15:45 | 33.04324 | -99.58570 | 31690 ft | 384 kts | 262° |
| 2026-05-05 15:46 | 33.03679 | -99.64842 | 31684 ft | 384 kts | 262° |
| 2026-05-05 15:46 | 33.03025 | -99.71155 | 31700 ft | 384 kts | 262° |
| 2026-05-05 15:47 | 33.02369 | -99.77467 | 31695 ft | 384 kts | 262° |
| 2026-05-05 15:47 | 33.01709 | -99.83780 | 31696 ft | 384 kts | 262° |
| 2026-05-05 15:48 | 33.01047 | -99.90092 | 31687 ft | 384 kts | 262° |
| 2026-05-05 15:48 | 33.00382 | -99.96391 | 31683 ft | 383 kts | 262° |
| 2026-05-05 15:49 | 32.99556 | -100.02670 | 31693 ft | 383 kts | 258° |
| 2026-05-05 15:49 | 32.98354 | -100.08848 | 31686 ft | 383 kts | 257° |
| 2026-05-05 15:50 | 32.97123 | -100.15019 | 31689 ft | 383 kts | 257° |
| 2026-05-05 15:50 | 32.95910 | -100.21169 | 31696 ft | 383 kts | 257° |
| 2026-05-05 15:51 | 32.94701 | -100.27347 | 31688 ft | 383 kts | 257° |
| 2026-05-05 15:51 | 32.93493 | -100.33528 | 31700 ft | 383 kts | 257° |
| 2026-05-05 15:52 | 32.92285 | -100.39706 | 31697 ft | 383 kts | 257° |
| 2026-05-05 15:52 | 32.91072 | -100.45886 | 31695 ft | 383 kts | 257° |
| 2026-05-05 15:53 | 32.89857 | -100.52061 | 31691 ft | 383 kts | 257° |
| 2026-05-05 15:53 | 32.88637 | -100.58244 | 31700 ft | 383 kts | 256° |
| 2026-05-05 15:54 | 32.87423 | -100.64381 | 31724 ft | 383 kts | 256° |
| 2026-05-05 15:54 | 32.86198 | -100.70551 | 31746 ft | 383 kts | 256° |
| 2026-05-05 15:55 | 32.84971 | -100.76722 | 31788 ft | 383 kts | 256° |
| 2026-05-05 15:55 | 32.83742 | -100.82880 | 31806 ft | 383 kts | 256° |
| 2026-05-05 15:56 | 32.82510 | -100.89038 | 31831 ft | 383 kts | 256° |
| 2026-05-05 15:56 | 32.81277 | -100.95189 | 31840 ft | 382 kts | 256° |
| 2026-05-05 15:57 | 32.80041 | -101.01336 | 31841 ft | 382 kts | 256° |
| 2026-05-05 15:57 | 32.78800 | -101.07488 | 31831 ft | 382 kts | 256° |
| 2026-05-05 15:58 | 32.77556 | -101.13637 | 31809 ft | 383 kts | 256° |
| 2026-05-05 15:58 | 32.76310 | -101.19785 | 31788 ft | 383 kts | 256° |
| 2026-05-05 15:59 | 32.75061 | -101.25927 | 31713 ft | 383 kts | 256° |
| 2026-05-05 15:59 | 32.73808 | -101.32073 | 31706 ft | 383 kts | 256° |
| 2026-05-05 16:00 | 32.72552 | -101.38220 | 31715 ft | 383 kts | 256° |
| 2026-05-05 16:00 | 32.71301 | -101.44324 | 31711 ft | 383 kts | 256° |
| 2026-05-05 16:01 | 32.70038 | -101.50468 | 31727 ft | 383 kts | 256° |
| 2026-05-05 16:01 | 32.68772 | -101.56614 | 31757 ft | 383 kts | 256° |
| 2026-05-05 16:02 | 32.67503 | -101.62755 | 31793 ft | 383 kts | 256° |
| 2026-05-05 16:02 | 32.66231 | -101.68899 | 31830 ft | 383 kts | 256° |
| 2026-05-05 16:03 | 32.64955 | -101.75043 | 31844 ft | 383 kts | 256° |
| 2026-05-05 16:03 | 32.63676 | -101.81185 | 31865 ft | 383 kts | 256° |
| 2026-05-05 16:04 | 32.62403 | -101.87285 | 31869 ft | 383 kts | 256° |
| 2026-05-05 16:04 | 32.61119 | -101.93419 | 31859 ft | 383 kts | 255° |
| 2026-05-05 16:05 | 32.59832 | -101.99550 | 31853 ft | 383 kts | 255° |
| 2026-05-05 16:05 | 32.58541 | -102.05688 | 31861 ft | 383 kts | 255° |
| 2026-05-05 16:06 | 32.57250 | -102.11807 | 31823 ft | 383 kts | 255° |
| 2026-05-05 16:06 | 32.55955 | -102.17931 | 31779 ft | 382 kts | 255° |
| 2026-05-05 16:07 | 32.54659 | -102.24042 | 31760 ft | 382 kts | 255° |
| 2026-05-05 16:07 | 32.53367 | -102.30119 | 31779 ft | 383 kts | 255° |
| 2026-05-05 16:08 | 32.52061 | -102.36249 | 31815 ft | 383 kts | 255° |
| 2026-05-05 16:08 | 32.50753 | -102.42367 | 31867 ft | 383 kts | 255° |
| 2026-05-05 16:09 | 32.49443 | -102.48483 | 31868 ft | 382 kts | 255° |
| 2026-05-05 16:09 | 32.48134 | -102.54579 | 31869 ft | 381 kts | 255° |
| 2026-05-05 16:10 | 32.46825 | -102.60660 | 31879 ft | 381 kts | 255° |
| 2026-05-05 16:10 | 32.45522 | -102.66697 | 31875 ft | 380 kts | 255° |
| 2026-05-05 16:11 | 32.44209 | -102.72761 | 31863 ft | 380 kts | 255° |
| 2026-05-05 16:12 | 32.41577 | -102.84881 | 31820 ft | 380 kts | 254° |
| 2026-05-05 16:13 | 32.38280 | -102.99977 | 31780 ft | 379 kts | 254° |
| 2026-05-05 16:13 | 32.36955 | -103.06017 | 31778 ft | 379 kts | 254° |
| 2026-05-05 16:14 | 32.34309 | -103.18037 | 31779 ft | 379 kts | 253° |
| 2026-05-05 16:15 | 32.31643 | -103.30086 | 31785 ft | 379 kts | 253° |
| 2026-05-05 16:16 | 32.28964 | -103.42136 | 31782 ft | 379 kts | 253° |
| 2026-05-05 16:17 | 32.26947 | -103.51172 | 31786 ft | 379 kts | 253° |
| 2026-05-05 16:18 | 32.24921 | -103.60212 | 31787 ft | 379 kts | 253° |
| 2026-05-05 16:19 | 32.22890 | -103.69248 | 31783 ft | 379 kts | 253° |
| 2026-05-05 16:19 | 32.20867 | -103.78243 | 31784 ft | 379 kts | 254° |
| 2026-05-05 16:20 | 32.19535 | -103.90675 | 31785 ft | 383 kts | 259° |
| 2026-05-05 16:22 | 32.18078 | -104.06292 | 31852 ft | 382 kts | 259° |
| 2026-05-05 16:23 | 32.16895 | -104.18718 | 31885 ft | 382 kts | 259° |
| 2026-05-05 16:23 | 32.15996 | -104.28068 | 31878 ft | 383 kts | 259° |
| 2026-05-05 16:24 | 32.15390 | -104.34326 | 31875 ft | 383 kts | 259° |
| 2026-05-05 16:25 | 32.14477 | -104.43707 | 31847 ft | 384 kts | 259° |
| 2026-05-05 16:25 | 32.13556 | -104.53098 | 31825 ft | 384 kts | 259° |
| 2026-05-05 16:26 | 32.12315 | -104.65594 | 31812 ft | 383 kts | 259° |
| 2026-05-05 16:27 | 32.11695 | -104.71836 | 31811 ft | 383 kts | 259° |
| 2026-05-05 16:27 | 32.11073 | -104.78044 | 31807 ft | 383 kts | 259° |
| 2026-05-05 16:28 | 32.10443 | -104.84296 | 31797 ft | 384 kts | 259° |
| 2026-05-05 16:28 | 32.09809 | -104.90559 | 31808 ft | 385 kts | 259° |
| 2026-05-05 16:29 | 32.09173 | -104.96815 | 31808 ft | 384 kts | 258° |
| 2026-05-05 16:29 | 32.08536 | -105.03045 | 31808 ft | 381 kts | 258° |
| 2026-05-05 16:30 | 32.07903 | -105.09209 | 31809 ft | 380 kts | 258° |
| 2026-05-05 16:30 | 32.07266 | -105.15374 | 31814 ft | 378 kts | 258° |
| 2026-05-05 16:31 | 32.06628 | -105.21523 | 31814 ft | 378 kts | 258° |
| 2026-05-05 16:31 | 32.05986 | -105.27669 | 31814 ft | 377 kts | 258° |
| 2026-05-05 16:32 | 32.05447 | -105.32815 | 31817 ft | 377 kts | 258° |
| 2026-05-05 16:32 | 32.04800 | -105.38962 | 31809 ft | 377 kts | 258° |
| 2026-05-05 16:33 | 32.04157 | -105.45053 | 31817 ft | 377 kts | 258° |
| 2026-05-05 16:33 | 32.03506 | -105.51181 | 31816 ft | 377 kts | 258° |
| 2026-05-05 16:34 | 32.02854 | -105.57292 | 31821 ft | 376 kts | 257° |
| 2026-05-05 16:34 | 32.02197 | -105.63419 | 31816 ft | 377 kts | 257° |
| 2026-05-05 16:35 | 32.01536 | -105.69558 | 31834 ft | 378 kts | 257° |
| 2026-05-05 16:35 | 32.00871 | -105.75706 | 31836 ft | 378 kts | 257° |
| 2026-05-05 16:36 | 32.00204 | -105.81852 | 31846 ft | 378 kts | 257° |
| 2026-05-05 16:36 | 31.99533 | -105.87995 | 31847 ft | 378 kts | 257° |
| 2026-05-05 16:37 | 31.98865 | -105.94091 | 31841 ft | 378 kts | 257° |
| 2026-05-05 16:37 | 31.98190 | -106.00222 | 31863 ft | 378 kts | 257° |
| 2026-05-05 16:38 | 31.97510 | -106.06366 | 31895 ft | 378 kts | 257° |
| 2026-05-05 16:38 | 31.96827 | -106.12515 | 31921 ft | 378 kts | 257° |
| 2026-05-05 16:39 | 31.96142 | -106.18655 | 31949 ft | 378 kts | 257° |
| 2026-05-05 16:39 | 31.95457 | -106.24782 | 31978 ft | 378 kts | 257° |
| 2026-05-05 16:40 | 31.95409 | -106.31037 | 32001 ft | 387 kts | 267° |
| 2026-05-05 16:40 | 31.95892 | -106.37350 | 32008 ft | 387 kts | 267° |
| 2026-05-05 16:41 | 31.96365 | -106.43666 | 31997 ft | 387 kts | 266° |
| 2026-05-05 16:41 | 31.96825 | -106.49978 | 31948 ft | 386 kts | 266° |
| 2026-05-05 16:42 | 31.97267 | -106.56267 | 31994 ft | 386 kts | 266° |
| 2026-05-05 16:42 | 31.97713 | -106.62498 | 32014 ft | 386 kts | 266° |
| 2026-05-05 16:43 | 31.98161 | -106.68815 | 32018 ft | 386 kts | 266° |
| 2026-05-05 16:43 | 31.98603 | -106.75128 | 32014 ft | 387 kts | 266° |
| 2026-05-05 16:44 | 31.99042 | -106.81445 | 31991 ft | 387 kts | 266° |
| 2026-05-05 16:44 | 31.99477 | -106.87755 | 31887 ft | 387 kts | 266° |
| 2026-05-05 16:45 | 31.99909 | -106.94069 | 31878 ft | 387 kts | 266° |
| 2026-05-05 16:45 | 32.00338 | -107.00391 | 31891 ft | 387 kts | 266° |
| 2026-05-05 16:46 | 32.00764 | -107.06723 | 31888 ft | 388 kts | 266° |
| 2026-05-05 16:46 | 32.01188 | -107.13052 | 31865 ft | 387 kts | 266° |
| 2026-05-05 16:47 | 32.01608 | -107.19375 | 31841 ft | 387 kts | 266° |
| 2026-05-05 16:47 | 32.02022 | -107.25663 | 31835 ft | 388 kts | 266° |
| 2026-05-05 16:48 | 32.02437 | -107.32000 | 31837 ft | 388 kts | 266° |
| 2026-05-05 16:48 | 32.02848 | -107.38333 | 31836 ft | 387 kts | 266° |
| 2026-05-05 16:49 | 32.03256 | -107.44667 | 31869 ft | 388 kts | 265° |
| 2026-05-05 16:49 | 32.03660 | -107.51002 | 31894 ft | 387 kts | 265° |
| 2026-05-05 16:50 | 32.04062 | -107.57323 | 31917 ft | 386 kts | 265° |
| 2026-05-05 16:50 | 32.04459 | -107.63633 | 31952 ft | 386 kts | 265° |
| 2026-05-05 16:51 | 32.04852 | -107.69956 | 31945 ft | 388 kts | 265° |
| 2026-05-05 16:51 | 32.05244 | -107.76289 | 31971 ft | 387 kts | 265° |
| 2026-05-05 16:52 | 32.05630 | -107.82573 | 31863 ft | 386 kts | 265° |
| 2026-05-05 16:52 | 32.06014 | -107.88880 | 31866 ft | 386 kts | 265° |
| 2026-05-05 16:53 | 32.06395 | -107.95184 | 31864 ft | 385 kts | 265° |
| 2026-05-05 16:53 | 32.06772 | -108.01494 | 31867 ft | 385 kts | 265° |
| 2026-05-05 16:54 | 32.07146 | -108.07793 | 31869 ft | 385 kts | 265° |
| 2026-05-05 16:54 | 32.07517 | -108.14097 | 31870 ft | 385 kts | 265° |
| 2026-05-05 16:55 | 32.07885 | -108.20400 | 31873 ft | 385 kts | 265° |
| 2026-05-05 16:55 | 32.08250 | -108.26704 | 31878 ft | 386 kts | 265° |
| 2026-05-05 16:56 | 32.08609 | -108.32975 | 31870 ft | 386 kts | 265° |
| 2026-05-05 16:56 | 32.08970 | -108.39301 | 31880 ft | 386 kts | 265° |
| 2026-05-05 16:57 | 32.09326 | -108.45615 | 31916 ft | 386 kts | 265° |
| 2026-05-05 16:57 | 32.09679 | -108.51941 | 31936 ft | 387 kts | 265° |
| 2026-05-05 16:58 | 32.10029 | -108.58270 | 31950 ft | 387 kts | 265° |
| 2026-05-05 16:58 | 32.10377 | -108.64612 | 31959 ft | 387 kts | 265° |
| 2026-05-05 16:59 | 32.10722 | -108.70945 | 31956 ft | 387 kts | 265° |
| 2026-05-05 16:59 | 32.11063 | -108.77276 | 31883 ft | 387 kts | 265° |
| 2026-05-05 17:00 | 32.11401 | -108.83619 | 31891 ft | 388 kts | 265° |
| 2026-05-05 17:00 | 32.11738 | -108.89986 | 31885 ft | 389 kts | 265° |
| 2026-05-05 17:01 | 32.12072 | -108.96348 | 31892 ft | 389 kts | 265° |
| 2026-05-05 17:01 | 32.12402 | -109.02733 | 31893 ft | 390 kts | 265° |
| 2026-05-05 17:02 | 32.12729 | -109.09079 | 31883 ft | 390 kts | 265° |
| 2026-05-05 17:02 | 32.13056 | -109.15491 | 31901 ft | 388 kts | 265° |
| 2026-05-05 17:03 | 32.13377 | -109.21845 | 31779 ft | 389 kts | 265° |
| 2026-05-05 17:03 | 32.13536 | -109.25029 | 30984 ft | 396 kts | 267° |
| 2026-05-05 17:03 | 32.13904 | -109.28307 | 30163 ft | 402 kts | 273° |
| 2026-05-05 17:04 | 32.14477 | -109.31502 | 29200 ft | 403 kts | 274° |
| 2026-05-05 17:04 | 32.15052 | -109.34710 | 28523 ft | 397 kts | 274° |
| 2026-05-05 17:04 | 32.15614 | -109.37874 | 27853 ft | 391 kts | 273° |
| 2026-05-05 17:04 | 32.16161 | -109.40992 | 27223 ft | 386 kts | 273° |
| 2026-05-05 17:05 | 32.16696 | -109.44076 | 26564 ft | 381 kts | 273° |
| 2026-05-05 17:05 | 32.17221 | -109.47123 | 25947 ft | 376 kts | 272° |
| 2026-05-05 17:05 | 32.17738 | -109.50132 | 25298 ft | 372 kts | 272° |
| 2026-05-05 17:05 | 32.18250 | -109.53116 | 24671 ft | 369 kts | 272° |
| 2026-05-05 17:06 | 32.18755 | -109.56076 | 24046 ft | 367 kts | 272° |
| 2026-05-05 17:06 | 32.19259 | -109.59022 | 23421 ft | 365 kts | 272° |
| 2026-05-05 17:06 | 32.19760 | -109.61954 | 22702 ft | 363 kts | 272° |
| 2026-05-05 17:06 | 32.20257 | -109.64858 | 22070 ft | 359 kts | 273° |
| 2026-05-05 17:07 | 32.20656 | -109.67749 | 21416 ft | 351 kts | 267° |
| 2026-05-05 17:07 | 32.20685 | -109.70591 | 20869 ft | 342 kts | 262° |
| 2026-05-05 17:07 | 32.20491 | -109.73351 | 20502 ft | 333 kts | 257° |
| 2026-05-05 17:07 | 32.20008 | -109.76040 | 20143 ft | 339 kts | 252° |
| 2026-05-05 17:08 | 32.19395 | -109.78727 | 19770 ft | 347 kts | 252° |
| 2026-05-05 17:08 | 32.18747 | -109.81488 | 19400 ft | 350 kts | 252° |
| 2026-05-05 17:08 | 32.18097 | -109.84251 | 19002 ft | 348 kts | 252° |
| 2026-05-05 17:08 | 32.17452 | -109.87000 | 18614 ft | 347 kts | 253° |
| 2026-05-05 17:09 | 32.16813 | -109.89740 | 18217 ft | 346 kts | 253° |
| 2026-05-05 17:09 | 32.16173 | -109.92490 | 17761 ft | 347 kts | 253° |
| 2026-05-05 17:09 | 32.15537 | -109.95230 | 17364 ft | 346 kts | 253° |
| 2026-05-05 17:09 | 32.14900 | -109.97974 | 16957 ft | 346 kts | 253° |
| 2026-05-05 17:10 | 32.14266 | -110.00705 | 16568 ft | 345 kts | 253° |
| 2026-05-05 17:10 | 32.13634 | -110.03426 | 16191 ft | 343 kts | 253° |
| 2026-05-05 17:10 | 32.13005 | -110.06130 | 15807 ft | 341 kts | 253° |
| 2026-05-05 17:10 | 32.12379 | -110.08822 | 15444 ft | 339 kts | 253° |
| 2026-05-05 17:11 | 32.11755 | -110.11501 | 15075 ft | 338 kts | 253° |
| 2026-05-05 17:11 | 32.11131 | -110.14175 | 14690 ft | 338 kts | 252° |
| 2026-05-05 17:11 | 32.10509 | -110.16840 | 14323 ft | 337 kts | 252° |
| 2026-05-05 17:11 | 32.09887 | -110.19503 | 13958 ft | 336 kts | 252° |
| 2026-05-05 17:12 | 32.09265 | -110.22159 | 13565 ft | 333 kts | 252° |
| 2026-05-05 17:12 | 32.08656 | -110.24764 | 13158 ft | 326 kts | 252° |
| 2026-05-05 17:12 | 32.08061 | -110.27307 | 12784 ft | 319 kts | 252° |
| 2026-05-05 17:12 | 32.07477 | -110.29797 | 12432 ft | 312 kts | 252° |
| 2026-05-05 17:13 | 32.06912 | -110.32203 | 12092 ft | 305 kts | 252° |
| 2026-05-05 17:13 | 32.06352 | -110.34597 | 11773 ft | 300 kts | 252° |
| 2026-05-05 17:13 | 32.05820 | -110.36949 | 11465 ft | 294 kts | 252° |
| 2026-05-05 17:13 | 32.05303 | -110.39259 | 11152 ft | 288 kts | 253° |
| 2026-05-05 17:14 | 32.04796 | -110.41523 | 10870 ft | 283 kts | 252° |
| 2026-05-05 17:14 | 32.04295 | -110.43751 | 10558 ft | 279 kts | 252° |
| 2026-05-05 17:14 | 32.03801 | -110.45947 | 10272 ft | 275 kts | 252° |
| 2026-05-05 17:14 | 32.03314 | -110.48107 | 10014 ft | 271 kts | 252° |
| 2026-05-05 17:15 | 32.02833 | -110.50239 | 9926 ft | 264 kts | 252° |
| 2026-05-05 17:15 | 32.02370 | -110.52289 | 9747 ft | 258 kts | 252° |
| 2026-05-05 17:15 | 32.01894 | -110.54386 | 9230 ft | 265 kts | 252° |
| 2026-05-05 17:15 | 32.01416 | -110.56493 | 8856 ft | 263 kts | 252° |
| 2026-05-05 17:16 | 32.00951 | -110.58549 | 8557 ft | 256 kts | 252° |
| 2026-05-05 17:16 | 32.00496 | -110.60558 | 8279 ft | 250 kts | 252° |
| 2026-05-05 17:16 | 32.00051 | -110.62516 | 8000 ft | 246 kts | 252° |
| 2026-05-05 17:16 | 31.99611 | -110.64451 | 7752 ft | 244 kts | 252° |
| 2026-05-05 17:17 | 31.99171 | -110.66386 | 7508 ft | 246 kts | 252° |
| 2026-05-05 17:17 | 31.98726 | -110.68339 | 7249 ft | 247 kts | 252° |
| 2026-05-05 17:17 | 31.98297 | -110.70228 | 7018 ft | 235 kts | 252° |
| 2026-05-05 17:17 | 31.97886 | -110.72037 | 6770 ft | 222 kts | 252° |
| 2026-05-05 17:18 | 31.97493 | -110.73760 | 6555 ft | 216 kts | 252° |
| 2026-05-05 17:18 | 31.97241 | -110.74892 | 6389 ft | 214 kts | 255° |
| 2026-05-05 17:18 | 31.97322 | -110.76638 | 6094 ft | 220 kts | 286° |
| 2026-05-05 17:18 | 31.98453 | -110.78639 | 5756 ft | 227 kts | 309° |
| 2026-05-05 17:19 | 31.99568 | -110.79922 | 5463 ft | 220 kts | 310° |
| 2026-05-05 17:19 | 32.00305 | -110.80754 | 5279 ft | 215 kts | 309° |
| 2026-05-05 17:19 | 32.01697 | -110.82345 | 4925 ft | 205 kts | 309° |
| 2026-05-05 17:19 | 32.02702 | -110.83491 | 4671 ft | 198 kts | 309° |
| 2026-05-05 17:20 | 32.03363 | -110.84244 | 4489 ft | 193 kts | 309° |
| 2026-05-05 17:20 | 32.04304 | -110.85328 | 4222 ft | 186 kts | 310° |
| 2026-05-05 17:20 | 32.05170 | -110.86332 | 4105 ft | 163 kts | 312° |
| 2026-05-05 17:20 | 32.05944 | -110.87251 | 3880 ft | 154 kts | 312° |
| 2026-05-05 17:21 | 32.06700 | -110.88150 | 3662 ft | 157 kts | 311° |
| 2026-05-05 17:21 | 32.07471 | -110.89060 | 3455 ft | 158 kts | 313° |
| 2026-05-05 17:21 | 32.08252 | -110.89982 | 3235 ft | 159 kts | 313° |
| 2026-05-05 17:22 | 32.09770 | -110.91777 | 2797 ft | 149 kts | 314° |
| 2026-05-05 17:22 | 32.10485 | -110.92619 | 2651 ft | 139 kts | 315° |
| 2026-05-05 17:22 | 32.11063 | -110.93296 | 2621 ft | 89 kts | 315° |
| 2026-05-05 17:22 | 32.11349 | -110.93633 | 2612 ft | 25 kts | 315° |
| 2026-05-05 17:23 | 32.11450 | -110.93684 | 2607 ft | 13 kts | 29° |
| 2026-05-05 17:23 | 32.11499 | -110.93626 | 2606 ft | 7 kts | 45° |
| 2026-05-05 17:23 | 32.11548 | -110.93621 | 2604 ft | 9 kts | 326° |
| 2026-05-05 17:23 | 32.11596 | -110.93677 | 2602 ft | 10 kts | 315° |
| 2026-05-05 17:24 | 32.11643 | -110.93733 | 2600 ft | 10 kts | 315° |
| 2026-05-05 17:24 | 32.11700 | -110.93800 | 2590 ft | 13 kts | 315° |
| 2026-05-05 17:24 | 32.11769 | -110.93881 | 2594 ft | 14 kts | 315° |
| 2026-05-05 17:24 | 32.11836 | -110.93960 | 2589 ft | 12 kts | 315° |
| 2026-05-05 17:25 | 32.11884 | -110.93956 | 2589 ft | 7 kts | 36° |
| 2026-05-05 17:25 | 32.11909 | -110.93930 | 2589 ft | 7 kts | 40° |
| 2026-05-05 17:25 | 32.11969 | -110.93896 | 2590 ft | 7 kts | 19° |
| 2026-05-05 17:25 | 32.12013 | -110.93879 | 2589 ft | 5 kts | 19° |
| 2026-05-05 17:26 | 32.12024 | -110.93874 | 2586 ft | 0 kts | 19° |